Time;durP1;ratioP1;P1;durP2;ratioP2;P2;SDS_P1;SDS_P2;PMS_P1;PMS_P2;Temp;Humidity;BMP_temperature;BMP_pressure;BME280_temperature;BME280_humidity;BME280_pressure;Samples;Min_cycle;Max_cycle;Signal;HPM_P1;HPM_P2
2022/11/24 00:01:29;;;;;;;24.48;3.13;;;;;;;6.82;95.93;100228.56;5050106;28;20476;-73
2022/11/24 00:04:03;;;;;;;19.20;3.30;;;;;;;6.81;95.90;100220.75;5056054;28;20069;-73
2022/11/24 00:06:34;;;;;;;19.33;3.30;;;;;;;6.78;95.79;100224.28;5050153;28;20048;-73
2022/11/24 00:09:04;;;;;;;20.90;3.58;;;;;;;6.80;96.02;100229.53;5050841;28;20045;-73
2022/11/24 00:11:35;;;;;;;17.88;3.22;;;;;;;6.78;95.93;100226.91;5054173;28;20156;-73
2022/11/24 00:14:04;;;;;;;21.27;3.30;;;;;;;6.82;95.97;100230.31;5047406;28;20124;-73
2022/11/24 00:16:34;;;;;;;19.95;2.80;;;;;;;6.81;95.94;100231.25;5057969;28;20041;-73
2022/11/24 00:19:08;;;;;;;16.45;2.95;;;;;;;6.81;95.86;100226.84;5041464;28;20113;-72
2022/11/24 00:21:37;;;;;;;20.00;3.30;;;;;;;6.83;95.99;100245.13;5057511;28;20038;-73
2022/11/24 00:24:05;;;;;;;19.23;3.38;;;;;;;6.84;96.02;100239.00;5053586;28;20941;-73
2022/11/24 00:26:36;;;;;;;12.15;3.33;;;;;;;6.87;96.15;100238.94;5055234;28;20049;-73
2022/11/24 00:29:06;;;;;;;17.08;2.65;;;;;;;6.90;96.16;100244.13;5040336;28;20045;-74
2022/11/24 00:31:37;;;;;;;15.93;3.75;;;;;;;6.95;96.18;100250.09;5046971;28;20038;-73
2022/11/24 00:34:10;;;;;;;19.90;4.05;;;;;;;6.98;96.20;100243.91;5058272;28;20041;-74
2022/11/24 00:36:39;;;;;;;20.52;3.88;;;;;;;7.00;96.05;100249.97;5058476;28;20041;-73
2022/11/24 00:39:10;;;;;;;17.02;3.00;;;;;;;6.99;95.79;100262.22;5048070;28;20130;-73
2022/11/24 00:41:38;;;;;;;18.73;3.50;;;;;;;6.97;95.66;100256.16;5041129;28;20066;-73
2022/11/24 00:44:06;;;;;;;18.20;2.65;;;;;;;6.95;95.59;100262.34;5059124;28;20040;-73
2022/11/24 00:46:34;;;;;;;14.52;2.60;;;;;;;6.93;95.63;100264.13;5056241;28;20045;-74
2022/11/24 00:49:03;;;;;;;23.88;2.80;;;;;;;6.92;95.63;100263.25;5050844;28;20068;-73
2022/11/24 00:51:30;;;;;;;15.23;2.75;;;;;;;6.90;95.49;100265.09;5065669;28;20514;-74
2022/11/24 00:54:00;;;;;;;18.17;2.47;;;;;;;6.92;95.49;100257.16;5050910;28;20037;-74
2022/11/24 00:56:28;;;;;;;17.85;3.00;;;;;;;6.92;95.57;100265.88;5048626;28;20047;-74
2022/11/24 00:58:56;;;;;;;14.20;2.72;;;;;;;6.95;95.65;100260.56;5047978;28;20140;-74
2022/11/24 01:01:27;;;;;;;19.65;3.40;;;;;;;6.96;95.77;100257.06;5045338;28;20038;-74
2022/11/24 01:03:55;;;;;;;19.13;2.33;;;;;;;7.02;95.74;100257.81;5055006;28;20415;-73
2022/11/24 01:06:27;;;;;;;19.30;3.28;;;;;;;7.04;95.72;100263.84;5059398;28;20095;-73
2022/11/24 01:08:56;;;;;;;19.17;2.70;;;;;;;7.03;95.29;100264.75;5049659;28;20484;-73
2022/11/24 01:12:00;;;;;;;15.77;2.70;;;;;;;7.04;95.10;100269.97;5049894;28;20492;-73
2022/11/24 01:14:21;;;;;;;;;;;;;;;7.01;95.38;100271.81;5053345;28;20127;-73
2022/11/24 01:16:50;;;;;;;13.25;2.80;;;;;;;6.98;95.13;100276.22;5051195;28;19925;-73
2022/11/24 01:19:17;;;;;;;16.63;2.47;;;;;;;6.96;95.18;100271.94;5054444;28;20045;-73
2022/11/24 01:21:45;;;;;;;15.32;2.95;;;;;;;6.95;94.93;100281.53;5058783;28;20047;-74
2022/11/24 01:24:13;;;;;;;17.73;2.65;;;;;;;6.92;94.79;100280.75;5064013;28;20041;-73
2022/11/24 01:26:41;;;;;;;22.83;2.72;;;;;;;6.90;94.86;100280.81;5060189;28;20049;-73
2022/11/24 01:29:16;;;;;;;15.70;2.67;;;;;;;6.89;94.75;100283.44;5050718;28;20117;-73
2022/11/24 01:31:43;;;;;;;15.23;2.70;;;;;;;6.86;94.78;100279.13;5050051;28;20063;-73
2022/11/24 01:34:12;;;;;;;13.80;2.72;;;;;;;6.83;94.79;100280.09;5053503;28;20143;-74
2022/11/24 01:36:39;;;;;;;14.68;2.35;;;;;;;6.82;94.87;100286.22;5050032;28;20136;-73
2022/11/24 01:39:06;;;;;;;13.13;2.97;;;;;;;6.84;95.07;100291.41;5056325;28;20116;-74
2022/11/24 01:41:34;;;;;;;11.70;2.80;;;;;;;6.85;95.04;100295.75;5057402;28;20112;-73
2022/11/24 01:44:24;;;;;;;15.40;2.72;;;;;;;6.87;95.02;100288.72;5036731;28;20073;-74
2022/11/24 01:47:12;;;;;;;11.60;2.95;;;;;;;6.84;94.85;100287.06;5050221;28;20045;-74
2022/11/24 01:49:50;;;;;;;13.85;2.15;;;;;;;6.82;94.77;100296.69;5050600;28;20487;-73
2022/11/24 01:52:46;;;;;;;12.07;2.85;;;;;;;6.80;94.88;100289.78;5051379;28;20467;-73
2022/11/24 01:55:27;;;;;;;10.40;2.10;;;;;;;6.79;94.83;100293.28;5064906;28;20073;-73
2022/11/24 01:58:21;;;;;;;18.75;2.45;;;;;;;6.75;94.74;100282.03;5041774;28;20048;-73
2022/11/24 02:00:49;;;;;;;14.18;2.42;;;;;;;6.79;94.92;100286.28;5051703;28;20037;-71
2022/11/24 02:03:24;;;;;;;13.23;2.28;;;;;;;6.82;95.21;100285.34;5052209;28;20048;-71
2022/11/24 02:06:18;;;;;;;12.63;2.30;;;;;;;6.89;95.17;100291.31;5051025;28;20042;-71
2022/11/24 02:09:12;;;;;;;12.85;2.95;;;;;;;6.96;95.25;100298.13;5050144;28;20503;-71
2022/11/24 02:11:42;;;;;;;15.88;2.67;;;;;;;6.98;95.09;100291.06;5050122;28;20037;-71
2022/11/24 02:14:14;;;;;;;17.48;3.90;;;;;;;7.00;94.86;100299.78;5056264;28;20041;-71
2022/11/24 02:16:48;;;;;;;15.93;2.33;;;;;;;6.99;94.50;100298.91;5050620;28;20542;-71
2022/11/24 02:19:36;;;;;;;15.82;2.58;;;;;;;7.01;94.35;100311.13;5051329;28;20045;-71
2022/11/24 02:22:27;;;;;;;15.93;2.72;;;;;;;6.96;94.20;100314.72;5050646;28;20522;-71
2022/11/24 02:25:15;;;;;;;12.93;2.38;;;;;;;6.95;94.10;100312.97;5053117;28;20049;-72
2022/11/24 02:27:44;;;;;;;16.40;2.58;;;;;;;6.96;94.59;100313.88;5063683;28;20060;-72
2022/11/24 02:30:19;;;;;;;16.73;2.47;;;;;;;6.93;94.26;100317.41;5051192;28;20602;-71
2022/11/24 02:32:46;;;;;;;14.35;2.50;;;;;;;6.94;94.32;100320.91;5056720;28;20045;-72
2022/11/24 02:35:14;;;;;;;15.57;2.40;;;;;;;6.93;94.43;100321.78;5059441;28;20049;-72
2022/11/24 02:37:41;;;;;;;20.67;2.60;;;;;;;6.94;94.78;100326.97;5048087;28;20068;-72
2022/11/24 02:40:13;;;;;;;20.77;2.42;;;;;;;6.97;94.57;100321.69;5041657;28;20037;-72
2022/11/24 02:42:45;;;;;;;12.73;2.50;;;;;;;7.00;94.50;100323.34;5050833;28;20117;-72
2022/11/24 02:45:15;;;;;;;18.15;3.05;;;;;;;7.03;94.54;100325.03;5057685;28;20037;-72
2022/11/24 02:47:42;;;;;;;15.98;2.53;;;;;;;7.04;94.36;100330.25;5063214;28;20089;-72
2022/11/24 02:50:09;;;;;;;15.27;2.58;;;;;;;7.05;94.27;100336.34;5051209;28;20527;-72
2022/11/24 02:52:37;;;;;;;16.90;2.83;;;;;;;7.05;94.10;100336.34;5050788;28;20038;-73
2022/11/24 02:55:04;;;;;;;15.02;2.55;;;;;;;7.03;94.00;100338.13;5062640;28;20033;-73
2022/11/24 02:57:31;;;;;;;18.85;2.67;;;;;;;7.00;93.98;100341.72;5057039;28;20148;-72
2022/11/24 02:59:59;;;;;;;11.52;2.47;;;;;;;6.98;93.88;100338.25;5047892;28;20045;-73
2022/11/24 03:02:26;;;;;;;15.48;2.50;;;;;;;6.95;93.72;100336.56;5048209;28;20069;-72
2022/11/24 03:04:53;;;;;;;15.20;2.28;;;;;;;6.92;93.80;100341.88;5051559;28;20042;-72
2022/11/24 03:07:21;;;;;;;15.77;2.78;;;;;;;6.90;93.85;100343.69;5048344;28;20042;-72
2022/11/24 03:09:49;;;;;;;16.52;2.38;;;;;;;6.89;93.88;100352.44;5025157;28;20054;-72
2022/11/24 03:12:18;;;;;;;18.83;2.85;;;;;;;6.84;93.70;100349.94;5048710;28;20664;-72
2022/11/24 03:14:45;;;;;;;16.60;2.67;;;;;;;6.82;94.11;100349.09;5058314;28;20447;-72
2022/11/24 03:17:12;;;;;;;16.42;2.47;;;;;;;6.82;94.04;100354.34;5053160;28;20044;-72
2022/11/24 03:19:40;;;;;;;15.55;3.10;;;;;;;6.83;94.28;100358.69;5051316;28;20041;-72
2022/11/24 03:22:07;;;;;;;13.73;2.70;;;;;;;6.82;94.26;100356.09;5049994;28;20157;-71
2022/11/24 03:24:35;;;;;;;14.75;3.20;;;;;;;6.82;94.28;100361.31;5050789;28;20557;-72
2022/11/24 03:27:03;;;;;;;14.18;2.90;;;;;;;6.82;94.49;100351.72;5034075;28;20050;-71
2022/11/24 03:29:31;;;;;;;18.33;2.55;;;;;;;6.84;94.75;100359.53;5063244;28;20069;-71
2022/11/24 03:31:58;;;;;;;24.52;3.67;;;;;;;6.92;94.78;100360.22;5048018;28;20151;-74
2022/11/24 03:34:25;;;;;;;16.35;2.67;;;;;;;7.00;94.89;100365.28;5043398;28;20121;-75
2022/11/24 03:36:52;;;;;;;16.05;2.53;;;;;;;7.05;94.97;100363.44;5047525;28;20049;-74
2022/11/24 03:39:19;;;;;;;15.95;2.45;;;;;;;7.08;94.79;100352.88;5056842;28;20041;-74
2022/11/24 03:41:46;;;;;;;21.85;3.10;;;;;;;7.15;95.03;100366.69;5063144;28;20538;-74
2022/11/24 03:44:14;;;;;;;17.77;2.67;;;;;;;7.23;94.89;100362.13;5049099;28;20104;-75
2022/11/24 03:46:41;;;;;;;16.52;2.95;;;;;;;7.30;94.62;100355.84;5053122;28;20773;-74
2022/11/24 03:49:08;;;;;;;21.92;3.58;;;;;;;7.36;94.76;100361.84;5048974;28;20139;-73
2022/11/24 03:51:36;;;;;;;14.35;2.40;;;;;;;7.35;94.48;100355.75;5052727;28;20053;-75
2022/11/24 03:54:07;;;;;;;16.38;2.67;;;;;;;7.34;94.06;100367.13;5049536;28;20038;-74
2022/11/24 03:56:34;;;;;;;23.52;3.22;;;;;;;7.29;93.87;100363.75;5062347;28;20041;-74
2022/11/24 03:59:01;;;;;;;18.27;2.58;;;;;;;7.25;94.00;100370.81;5052168;28;20048;-74
2022/11/24 04:01:28;;;;;;;21.20;3.03;;;;;;;7.21;94.08;100369.19;5051034;28;20064;-74
2022/11/24 04:03:55;;;;;;;22.92;3.03;;;;;;;7.20;94.09;100370.09;5050838;28;20045;-74
2022/11/24 04:06:22;;;;;;;19.75;2.60;;;;;;;7.19;94.14;100377.97;5059877;28;20033;-73
2022/11/24 04:08:50;;;;;;;17.20;2.60;;;;;;;7.17;94.22;100385.88;5056411;28;20045;-73
2022/11/24 04:14:09;;;;;;;16.58;2.70;;;;;;;7.17;94.09;100379.78;5052274;28;20045;-73
2022/11/24 04:16:40;;;;;;;19.63;3.10;;;;;;;7.18;94.29;100384.09;5050555;28;20049;-73
2022/11/24 04:19:07;;;;;;;13.70;2.70;;;;;;;7.19;94.50;100384.09;5055836;28;20046;-73
2022/11/24 04:21:36;;;;;;;23.45;3.35;;;;;;;7.22;94.40;100383.16;5054921;28;20049;-72
2022/11/24 04:24:05;;;;;;;18.38;3.20;;;;;;;7.23;94.36;100383.09;5050457;28;20033;-72
2022/11/24 04:26:33;;;;;;;20.80;3.40;;;;;;;7.26;94.42;100392.69;5055905;28;20037;-73
2022/11/24 04:29:00;;;;;;;22.27;3.45;;;;;;;7.30;94.70;100395.19;5058900;28;20037;-73
2022/11/24 04:31:28;;;;;;;18.27;3.33;;;;;;;7.35;94.73;100388.94;5052151;28;20038;-73
2022/11/24 04:33:56;;;;;;;20.70;3.67;;;;;;;7.42;94.84;100386.16;5041286;28;20070;-72
2022/11/24 04:36:23;;;;;;;23.13;3.42;;;;;;;7.48;94.70;100386.91;5056073;28;20472;-71
2022/11/24 04:38:52;;;;;;;16.65;3.22;;;;;;;7.51;94.71;100378.94;5046952;28;20069;-72
2022/11/24 04:41:40;;;;;;;20.05;3.90;;;;;;;7.53;94.56;100380.63;5049896;28;20896;-72
2022/11/24 04:44:07;;;;;;;20.20;3.13;;;;;;;7.53;94.19;100383.25;5059693;28;20576;-72
2022/11/24 04:46:34;;;;;;;22.45;3.50;;;;;;;7.52;94.17;100389.41;5044874;28;20051;-74
2022/11/24 04:49:01;;;;;;;22.17;3.25;;;;;;;7.49;93.73;100397.34;5060268;28;20046;-73
2022/11/24 04:51:28;;;;;;;23.73;3.45;;;;;;;7.46;93.58;100389.56;5046576;28;20053;-73
2022/11/24 04:53:55;;;;;;;16.05;3.25;;;;;;;7.43;93.72;100403.63;5045607;28;20041;-73
2022/11/24 04:56:23;;;;;;;22.40;3.13;;;;;;;7.42;93.77;100403.66;5044314;28;20100;-73
2022/11/24 04:58:50;;;;;;;17.65;2.80;;;;;;;7.41;93.73;100409.81;5047841;28;20044;-71
2022/11/24 05:01:17;;;;;;;20.10;3.30;;;;;;;7.42;93.75;100406.28;5048888;28;20038;-72
2022/11/24 05:03:44;;;;;;;19.67;3.08;;;;;;;7.45;94.17;100411.44;5048922;28;20042;-72
2022/11/24 05:06:11;;;;;;;16.48;2.80;;;;;;;7.52;94.28;100423.53;5049269;28;20046;-72
2022/11/24 05:08:38;;;;;;;15.05;3.08;;;;;;;7.61;94.42;100423.28;5052933;28;20037;-72
2022/11/24 05:11:06;;;;;;;17.80;2.70;;;;;;;7.70;94.28;100426.59;5060238;28;20042;-72
2022/11/24 05:13:33;;;;;;;15.65;2.88;;;;;;;7.77;94.34;100433.41;5045640;28;20056;-72
2022/11/24 05:16:00;;;;;;;21.90;2.78;;;;;;;7.82;94.18;100439.41;5050825;28;20042;-73
2022/11/24 05:18:28;;;;;;;17.50;2.83;;;;;;;7.86;93.71;100438.41;5052256;28;20052;-72
2022/11/24 05:20:57;;;;;;;19.02;3.15;;;;;;;7.92;93.36;100450.50;5049566;28;20037;-72
2022/11/24 05:23:25;;;;;;;14.43;2.72;;;;;;;7.94;92.77;100448.72;5034110;28;20784;-72
2022/11/24 05:25:53;;;;;;;16.50;3.25;;;;;;;7.97;92.75;100453.03;5048441;28;20585;-72
2022/11/24 05:28:20;;;;;;;19.05;2.42;;;;;;;8.00;92.64;100463.44;5052935;28;20096;-71
2022/11/24 05:30:47;;;;;;;13.85;2.75;;;;;;;8.02;92.44;100466.91;5052081;28;20042;-71
2022/11/24 05:33:17;;;;;;;15.27;2.60;;;;;;;8.03;92.43;100469.47;5045580;28;20046;-72
2022/11/24 05:35:47;;;;;;;19.77;2.45;;;;;;;8.05;92.58;100477.31;5041956;28;20041;-72
2022/11/24 05:38:16;;;;;;;20.00;3.35;;;;;;;8.05;92.50;100477.31;5046160;28;20050;-72
2022/11/24 05:40:46;;;;;;;15.55;2.28;;;;;;;8.04;92.57;100481.72;5043020;28;20042;-71
2022/11/24 05:43:19;;;;;;;9.98;2.10;;;;;;;8.04;92.66;100478.19;5048616;28;20652;-71
2022/11/24 05:45:46;;;;;;;20.48;2.92;;;;;;;8.03;92.81;100485.22;5050865;28;20037;-71
2022/11/24 05:48:15;;;;;;;17.67;2.72;;;;;;;8.04;92.78;100479.09;5044007;28;20153;-70
2022/11/24 05:50:42;;;;;;;14.50;2.53;;;;;;;8.03;92.89;100482.59;5042109;28;20720;-70
2022/11/24 05:53:12;;;;;;;14.20;3.03;;;;;;;8.04;93.04;100478.19;5045234;28;20041;-70
2022/11/24 05:55:40;;;;;;;18.55;2.72;;;;;;;8.07;93.17;100486.88;5047597;28;20064;-71
2022/11/24 05:58:08;;;;;;;19.15;3.28;;;;;;;8.14;93.38;100490.19;5050815;28;20045;-70
2022/11/24 06:00:36;;;;;;;24.13;3.78;;;;;;;8.21;93.30;100491.78;5039421;28;20042;-70
2022/11/24 06:03:03;;;;;;;20.08;3.00;;;;;;;8.28;93.24;100502.13;5047159;28;20130;-70
2022/11/24 06:05:31;;;;;;;21.83;2.65;;;;;;;8.34;93.21;100510.69;5049488;28;20661;-70
2022/11/24 06:07:59;;;;;;;29.20;3.55;;;;;;;8.40;93.12;100502.66;5047239;28;20041;-70
2022/11/24 06:10:27;;;;;;;20.63;3.05;;;;;;;8.45;93.20;100507.78;5053646;28;20438;-70
2022/11/24 06:12:54;;;;;;;16.10;2.92;;;;;;;8.49;93.10;100514.72;5044557;28;20045;-70
2022/11/24 06:15:22;;;;;;;21.08;3.05;;;;;;;8.56;93.02;100518.03;5042904;28;20124;-70
2022/11/24 06:17:54;;;;;;;24.60;3.15;;;;;;;8.62;92.69;100517.00;5043748;28;20052;-70
2022/11/24 06:20:23;;;;;;;18.50;3.42;;;;;;;8.66;92.55;100523.91;5048033;28;20079;-70
2022/11/24 06:23:04;;;;;;;20.15;3.65;;;;;;;8.68;92.36;100529.97;5048532;28;20450;-71
2022/11/24 06:25:30;;;;;;;15.98;3.00;;;;;;;8.61;92.19;100533.69;5037898;28;20049;-70
2022/11/24 06:28:03;;;;;;;13.25;3.25;;;;;;;8.51;91.72;100536.56;5033325;28;20120;-70
2022/11/24 06:30:31;;;;;;;18.23;3.00;;;;;;;8.44;91.90;100537.59;5031373;28;20042;-70
2022/11/24 06:32:58;;;;;;;21.42;3.55;;;;;;;8.38;92.14;100548.25;5047298;28;20090;-70
2022/11/24 06:35:25;;;;;;;17.00;3.35;;;;;;;8.32;92.19;100551.03;5043958;28;20087;-70
2022/11/24 06:37:52;;;;;;;18.80;3.08;;;;;;;8.27;92.36;100560.78;5038138;28;20033;-70
2022/11/24 06:40:19;;;;;;;22.02;3.40;;;;;;;8.23;92.63;100563.50;5048018;28;20037;-70
2022/11/24 06:42:51;;;;;;;22.10;3.58;;;;;;;8.19;92.82;100572.34;5050120;28;20396;-71
2022/11/24 06:45:18;;;;;;;24.05;3.95;;;;;;;8.17;92.80;100584.66;5040164;28;20045;-69
2022/11/24 06:47:45;;;;;;;22.48;3.88;;;;;;;8.15;93.07;100583.81;5045396;28;20080;-69
2022/11/24 06:50:12;;;;;;;22.13;3.58;;;;;;;8.14;93.26;100594.38;5039828;28;20061;-69
2022/11/24 06:52:39;;;;;;;22.77;3.65;;;;;;;8.09;93.28;100592.72;5046643;28;20523;-68
2022/11/24 06:55:07;;;;;;;22.20;3.35;;;;;;;8.08;93.57;100591.00;5050787;28;20446;-69
2022/11/24 06:57:35;;;;;;;17.75;2.75;;;;;;;8.07;93.50;100598.91;5046989;28;20068;-69
2022/11/24 07:00:06;;;;;;;19.08;3.50;;;;;;;8.06;93.77;100602.44;5037900;28;20634;-69
2022/11/24 07:02:35;;;;;;;25.02;3.53;;;;;;;8.03;93.71;100602.53;5049474;28;20037;-70
2022/11/24 07:05:08;;;;;;;16.83;3.10;;;;;;;8.02;93.88;100606.03;5037108;28;20090;-69
2022/11/24 07:07:35;;;;;;;23.92;3.63;;;;;;;8.03;93.90;100620.91;5052863;28;20478;-70
2022/11/24 07:10:03;;;;;;;17.55;3.17;;;;;;;8.02;93.67;100624.41;5052503;28;20049;-70
2022/11/24 07:12:34;;;;;;;14.07;2.95;;;;;;;8.03;93.46;100629.63;5051205;28;20033;-70
2022/11/24 07:15:01;;;;;;;21.65;3.45;;;;;;;8.02;93.74;100632.28;5052471;28;20045;-71
2022/11/24 07:17:28;;;;;;;17.00;3.20;;;;;;;8.04;93.35;100644.47;5051797;28;20092;-70
2022/11/24 07:19:56;;;;;;;14.25;2.92;;;;;;;8.03;93.59;100645.38;5051604;28;20160;-70
2022/11/24 07:22:23;;;;;;;14.07;2.60;;;;;;;8.05;93.66;100648.84;5051588;28;20064;-70
2022/11/24 07:24:50;;;;;;;12.57;2.50;;;;;;;8.09;93.57;100653.09;5032194;28;20046;-71
2022/11/24 07:27:17;;;;;;;11.82;2.60;;;;;;;8.12;93.26;100653.94;5045624;28;20075;-71
2022/11/24 07:29:44;;;;;;;14.68;2.83;;;;;;;8.12;92.97;100660.06;5052065;28;20045;-71
2022/11/24 07:32:11;;;;;;;11.80;2.30;;;;;;;8.14;92.96;100660.03;5051480;28;20053;-71
2022/11/24 07:34:38;;;;;;;9.52;2.70;;;;;;;8.14;92.62;100665.28;5051720;28;20113;-71
2022/11/24 07:37:05;;;;;;;13.10;2.45;;;;;;;8.16;92.49;100671.34;5051994;28;21003;-71
2022/11/24 07:39:33;;;;;;;12.48;2.60;;;;;;;8.16;92.36;100679.25;5050286;28;20042;-71
2022/11/24 07:42:04;;;;;;;10.27;2.03;;;;;;;8.16;92.36;100682.72;5047713;28;20045;-71
2022/11/24 07:44:31;;;;;;;12.65;2.38;;;;;;;8.16;91.95;100687.13;5049222;28;20071;-71
2022/11/24 07:46:58;;;;;;;7.82;2.10;;;;;;;8.14;91.41;100695.00;5051887;28;20045;-71
2022/11/24 07:49:26;;;;;;;11.05;2.53;;;;;;;8.16;91.46;100695.84;5050583;28;20045;-71
2022/11/24 07:51:53;;;;;;;9.77;2.05;;;;;;;8.19;91.51;100703.66;5051453;28;20053;-71
2022/11/24 07:54:19;;;;;;;8.45;2.33;;;;;;;8.26;91.17;100704.38;5050737;28;20046;-71
2022/11/24 07:56:48;;;;;;;8.73;1.90;;;;;;;8.30;91.37;100705.19;5048224;28;20049;-71
2022/11/24 07:59:16;;;;;;;7.10;1.83;;;;;;;8.33;91.11;100707.75;5032111;28;20034;-71
2022/11/24 08:01:43;;;;;;;8.48;2.10;;;;;;;8.37;89.99;100719.88;5049874;28;20103;-71
2022/11/24 08:04:10;;;;;;;14.48;2.55;;;;;;;8.37;89.98;100722.53;5051663;28;20120;-71
2022/11/24 08:06:37;;;;;;;6.45;1.40;;;;;;;8.38;89.96;100730.38;5051676;28;20069;-72
2022/11/24 08:09:11;;;;;;;8.55;1.80;;;;;;;8.38;89.97;100729.50;5051518;28;20100;-71
2022/11/24 08:11:38;;;;;;;8.57;1.70;;;;;;;8.42;89.29;100740.81;5051443;28;20046;-71
2022/11/24 08:14:05;;;;;;;5.68;1.38;;;;;;;8.40;88.83;100739.06;5051718;28;20041;-71
2022/11/24 08:16:32;;;;;;;6.22;1.33;;;;;;;8.37;88.99;100751.41;5051134;28;20045;-71
2022/11/24 08:19:00;;;;;;;8.13;1.60;;;;;;;8.37;88.29;100759.28;5051092;28;20871;-71
2022/11/24 08:21:27;;;;;;;7.65;1.30;;;;;;;8.38;88.79;100759.28;5051667;28;20795;-71
2022/11/24 08:23:57;;;;;;;7.13;1.63;;;;;;;8.43;88.76;100777.56;5051330;28;20073;-71
2022/11/24 08:26:25;;;;;;;9.63;1.42;;;;;;;8.45;89.22;100770.50;5051026;28;20048;-71
2022/11/24 08:28:55;;;;;;;8.05;1.30;;;;;;;8.49;89.12;100766.09;5051111;28;20045;-71
2022/11/24 08:31:31;;;;;;;11.50;1.55;;;;;;;8.50;88.83;100779.19;5050935;28;20041;-71
2022/11/24 08:33:59;;;;;;;5.38;1.25;;;;;;;8.51;88.76;100782.66;5051189;28;20100;-71
2022/11/24 08:36:26;;;;;;;5.88;1.30;;;;;;;8.50;88.19;100786.19;5051356;28;20507;-71
2022/11/24 08:38:56;;;;;;;8.07;1.38;;;;;;;8.48;88.10;100785.38;5051215;28;20078;-71
2022/11/24 08:41:24;;;;;;;7.65;2.00;;;;;;;8.51;88.33;100790.53;5046194;28;20048;-71
2022/11/24 08:43:53;;;;;;;8.93;1.52;;;;;;;8.54;88.21;100783.47;5052574;28;20056;-71
2022/11/24 08:46:21;;;;;;;8.45;1.33;;;;;;;8.53;88.52;100792.25;5051294;28;20044;-71
2022/11/24 08:48:51;;;;;;;11.95;2.20;;;;;;;8.57;88.67;100800.94;5051529;28;20046;-69
2022/11/24 08:51:23;;;;;;;5.97;1.40;;;;;;;8.55;89.03;100808.81;5050240;28;20060;-70
2022/11/24 08:53:55;;;;;;;7.93;1.38;;;;;;;8.63;88.88;100813.06;5051237;28;20099;-70
2022/11/24 08:56:23;;;;;;;12.88;1.40;;;;;;;8.68;88.84;100808.56;5051113;28;20045;-70
2022/11/24 08:58:52;;;;;;;15.95;1.98;;;;;;;8.68;88.71;100809.44;5050697;28;20176;-70
2022/11/24 09:01:20;;;;;;;8.63;1.50;;;;;;;8.72;88.77;100814.59;5051243;28;20050;-70
2022/11/24 09:03:49;;;;;;;11.20;1.70;;;;;;;8.75;88.97;100828.53;5051200;28;20057;-71
2022/11/24 09:06:23;;;;;;;9.38;1.52;;;;;;;8.78;89.09;100825.84;5051123;28;20049;-71
2022/11/24 09:08:53;;;;;;;9.50;1.50;;;;;;;8.81;88.89;100819.66;5053844;28;20099;-70
2022/11/24 09:11:21;;;;;;;9.25;2.03;;;;;;;8.86;88.90;100830.94;5032933;28;20060;-71
2022/11/24 09:13:49;;;;;;;5.20;1.55;;;;;;;8.88;88.72;100833.50;5051434;28;20112;-71
2022/11/24 09:16:20;;;;;;;11.48;1.70;;;;;;;8.90;88.63;100834.34;5050700;28;20056;-72
2022/11/24 09:19:02;;;;;;;11.68;1.80;;;;;;;8.90;88.57;100835.22;5050620;28;20041;-71
2022/11/24 09:21:33;;;;;;;10.57;1.45;;;;;;;8.92;88.21;100837.81;5050758;28;20042;-71
2022/11/24 09:24:00;;;;;;;11.80;1.70;;;;;;;8.94;88.16;100851.78;5050595;28;20133;-71
2022/11/24 09:26:31;;;;;;;7.03;1.40;;;;;;;9.08;88.00;100854.94;5051184;28;20091;-71
2022/11/24 09:29:00;;;;;;;6.55;1.50;;;;;;;9.21;87.53;100854.66;5051254;28;20107;-72
2022/11/24 09:31:34;;;;;;;8.48;1.67;;;;;;;9.27;86.84;100852.75;5050511;28;20439;-72
2022/11/24 09:34:10;;;;;;;8.63;1.60;;;;;;;9.27;87.07;100870.28;5050964;28;20041;-72
2022/11/24 09:36:37;;;;;;;11.43;1.65;;;;;;;9.34;86.60;100864.00;5050631;28;20052;-72
2022/11/24 09:39:04;;;;;;;7.88;1.42;;;;;;;9.39;86.38;100869.97;5049520;28;20037;-72
2022/11/24 09:42:02;;;;;;;8.30;1.45;;;;;;;9.44;86.36;100872.50;5035257;28;20057;-71
2022/11/24 09:44:57;;;;;;;6.43;1.55;;;;;;;9.43;85.91;100870.75;5050497;28;20084;-72
2022/11/24 09:47:47;;;;;;;;;;;;;;;9.36;85.79;100877.94;5050635;28;20045;-72
2022/11/24 09:50:25;;;;;;;8.98;1.77;;;;;;;9.35;85.83;100883.25;5050953;28;20361;-72
2022/11/24 09:53:14;;;;;;;12.38;1.70;;;;;;;9.36;84.94;100879.72;5050455;28;20048;-72
2022/11/24 09:55:48;;;;;;;8.82;2.17;;;;;;;9.34;85.00;100890.28;5050690;28;20052;-72
2022/11/24 09:58:42;;;;;;;12.48;2.00;;;;;;;9.36;85.20;100895.50;5030345;28;20065;-72
2022/11/24 10:01:37;;;;;;;12.65;1.67;;;;;;;9.37;84.88;100892.84;5030306;28;20096;-72
2022/11/24 10:04:38;;;;;;;11.75;2.25;;;;;;;9.38;84.89;100901.59;5023496;28;20093;-72
2022/11/24 10:07:44;;;;;;;14.63;2.33;;;;;;;9.40;85.15;100899.81;5025728;28;20058;-72
2022/11/24 10:10:29;;;;;;;9.40;1.65;;;;;;;9.43;84.90;100899.72;5033583;28;20046;-72
2022/11/24 10:13:23;;;;;;;10.32;1.60;;;;;;;9.46;84.51;100907.53;5033722;28;20053;-72
2022/11/24 10:16:33;;;;;;;10.23;1.50;;;;;;;9.47;84.04;100911.91;5034121;28;20042;-72
2022/11/24 10:19:27;;;;;;;9.13;1.75;;;;;;;9.49;83.73;100923.25;5033346;28;20054;-72
2022/11/24 10:22:25;;;;;;;8.68;1.48;;;;;;;9.53;83.32;100927.53;5034512;28;20831;-72
2022/11/24 10:25:02;;;;;;;12.43;2.58;;;;;;;9.55;83.42;100924.88;5053032;28;20049;-72
2022/11/24 10:28:02;;;;;;;10.95;2.00;;;;;;;9.57;83.49;100925.69;5053271;28;20517;-72
2022/11/24 10:30:30;;;;;;;8.77;2.00;;;;;;;9.59;83.72;100929.16;5053028;28;20041;-72
2022/11/24 10:33:16;;;;;;;13.02;2.35;;;;;;;9.66;83.29;100929.88;5053210;28;20824;-72
2022/11/24 10:35:54;;;;;;;9.35;2.20;;;;;;;9.70;83.63;100942.06;5052814;28;20069;-72
2022/11/24 10:38:42;;;;;;;12.80;1.98;;;;;;;9.74;82.98;100933.16;5051965;28;20045;-72
2022/11/24 10:41:28;;;;;;;8.40;1.92;;;;;;;9.81;82.45;100947.94;5054847;28;20863;-72
2022/11/24 10:43:57;;;;;;;7.60;1.60;;;;;;;9.81;82.83;100947.03;5052213;28;20116;-73
2022/11/24 10:46:27;;;;;;;17.20;2.50;;;;;;;9.83;82.57;100940.81;5052855;28;20511;-72
2022/11/24 10:49:03;;;;;;;15.73;2.33;;;;;;;9.86;82.68;100946.03;5052597;28;20050;-72
2022/11/24 10:52:13;;;;;;;10.25;2.05;;;;;;;9.91;82.48;100948.53;5052216;28;20135;-73
2022/11/24 10:55:13;;;;;;;12.18;2.10;;;;;;;9.94;82.43;100953.72;5052812;28;20045;-72
2022/11/24 10:57:40;;;;;;;9.52;2.00;;;;;;;9.95;81.87;100953.69;5008410;28;20053;-72
2022/11/24 11:00:32;;;;;;;15.38;2.28;;;;;;;10.01;82.08;100951.81;5054002;28;20045;-72
2022/11/24 11:03:20;;;;;;;12.30;2.25;;;;;;;10.07;82.23;100956.91;5051875;28;20042;-72
2022/11/24 11:05:53;;;;;;;14.35;2.20;;;;;;;10.10;82.22;100956.84;5050572;28;20041;-72
2022/11/24 11:08:29;;;;;;;13.10;2.28;;;;;;;10.15;82.38;100959.34;5042188;28;20046;-72
2022/11/24 11:11:28;;;;;;;10.45;2.00;;;;;;;10.20;82.48;100966.22;5046605;28;20050;-72
2022/11/24 11:13:59;;;;;;;13.80;2.17;;;;;;;10.24;82.33;100959.09;5051736;28;20038;-73
2022/11/24 11:16:47;;;;;;;14.55;2.28;;;;;;;10.23;82.34;100971.38;5051451;28;20471;-72
2022/11/24 11:19:39;;;;;;;12.95;2.45;;;;;;;10.34;81.95;100970.22;5052069;28;20049;-72
2022/11/24 11:22:36;;;;;;;9.73;1.73;;;;;;;10.44;81.23;100970.91;5051072;28;20048;-73
2022/11/24 11:25:09;;;;;;;12.60;2.47;;;;;;;10.46;80.82;100967.31;5050785;28;20037;-73
2022/11/24 11:27:39;;;;;;;13.32;2.30;;;;;;;10.51;80.90;100968.06;5051268;28;20053;-72
2022/11/24 11:30:23;;;;;;;17.75;2.80;;;;;;;10.57;80.19;100967.00;5051980;28;20099;-72
2022/11/24 11:33:27;;;;;;;12.73;2.77;;;;;;;10.60;80.32;100969.53;5051563;28;20041;-72
2022/11/24 11:36:15;;;;;;;14.13;5.00;;;;;;;10.64;80.91;100975.59;5044021;28;20271;-72
2022/11/24 11:38:44;;;;;;;15.52;4.22;;;;;;;10.68;80.74;100974.59;5052859;28;20052;-72
2022/11/24 11:41:22;;;;;;;12.98;2.50;;;;;;;10.76;79.96;100969.97;5049147;28;20049;-72
2022/11/24 11:44:15;;;;;;;12.68;2.55;;;;;;;10.79;79.14;100967.25;5051687;28;20045;-72
2022/11/24 11:46:43;;;;;;;16.63;5.28;;;;;;;10.82;79.57;100961.91;5029364;28;20479;-72
2022/11/24 11:49:12;;;;;;;15.27;3.70;;;;;;;10.88;80.15;100959.06;5006248;28;20093;-72
2022/11/24 11:52:25;;;;;;;14.68;2.80;;;;;;;10.96;79.55;100952.69;4995011;28;20519;-72
2022/11/24 11:55:27;;;;;;;18.13;6.28;;;;;;;11.00;79.88;100955.19;5012318;28;20064;-72